map of ITB home
ITB - Airport
Location
City:  Itaituba, Pará, Brazil
ICAO:SBIH
IATA:ITB

Details
Type:Airport (Aerodrome, Airfield)
Use:Public/Civil
Latitude:4°14'32"S (-4.242341)
Longitude:56°00'02"W (-56.000668)
Datum:WGS 1984
Elevation:110 ft (34 m)
Variation:18.02°W (WMM2015v2 magnetic declination)
-0.10° annual change
Runways:1
Longest:5266 × 98 ft (1605 × 30 m), paved

Time
Time Zone:UTC-3
Local Time:

Weather
METAR:SBIH 041400Z 07007KT 9999 SCT015 30/24 Q1013
TAF:SBIH 041000Z 0412/0424 00000KT 9999 FEW008 TN28/0413Z TX32/0419Z
BECMG 0415/0417 12004KT FEW020 FEW025TCU
BECMG 0420/0422 09008KT FEW025
RMK PFF

Related Locations
Nearby:
Farthest:NAH: 12335 mi / 19851 km
Tahuna [Naha Airport], SA, ID

Find:

   beyond  
but within

Other Information
Maps:
NOTAMs:
Links:
Sources:

  
  • flag of Brazil
  • flag of Pará
  

Sectional Chart

Flight Planning
at skyvector.com

Satellite Image

Google Maps Satellite view

 

Copyright © 2004-2019 Karl L. Swartz. All rights reserved.
The Great Circle Mapper name and logo are trademarks of the Great Circle Mapper.
All other trademarks mentioned herein belong to their respective owners.
Please see credits for attibutions and further copyright information.

  Follow gcmap on Facebook Follow gcmap on Twitter GCmap on LinkedIn

hCard Microformat

Geo Microformat